Parral, Ohio
Current Conditions -  °F | °C
As of 5:53 PM on Tuesday 25 Nov 2014 (Local Time) from KPHD Reporting Station
Few Clouds Few Clouds  
Wind Chill: 33°   Ceiling: Unl
Heat Index: 38°   Visibility: 10mi
Dew Point: 26°   Wind: 7mph
Humidity: 62%   Direction: 300°WNW
Pressure: 30.13"   Gusts: NA
Location:  40.5515°N, 81.4667°W
Report Text: KPHD 252253Z AUTO 30006KT 10SM FEW035 03/M03 A3013 RMK AO2 SLP211 T00331033
Loading
Personal Weather Stations






























Interactive Weather Map New forecast layout! Learn more

10-Day Weather Forecast

Advertisements
Track Severe Weather on mobile